createdAt,value
2019-03-26T00:00:19.135Z,69.60
2019-03-26T00:02:49.215Z,70.00
2019-03-26T00:05:19.228Z,69.70
2019-03-26T00:07:49.205Z,69.80
2019-03-26T00:10:19.187Z,69.90
2019-03-26T00:12:49.099Z,69.80
2019-03-26T00:15:18.953Z,69.80
2019-03-26T00:17:48.994Z,70.50
2019-03-26T00:20:19.011Z,69.70
2019-03-26T00:22:52.794Z,69.70
2019-03-26T00:25:22.739Z,69.60
2019-03-26T00:27:52.670Z,69.60
2019-03-26T00:30:22.631Z,69.70
2019-03-26T00:32:52.564Z,69.80
2019-03-26T00:35:22.536Z,69.80
2019-03-26T00:37:52.604Z,69.80
2019-03-26T00:40:22.501Z,69.90
2019-03-26T00:42:52.715Z,69.90
2019-03-26T00:45:22.635Z,70.00
2019-03-26T00:47:52.638Z,70.10
2019-03-26T00:50:22.533Z,70.10
2019-03-26T00:52:52.504Z,70.10
2019-03-26T00:55:23.304Z,70.10
2019-03-26T00:57:53.348Z,70.20
2019-03-26T01:00:39.406Z,70.30
2019-03-26T01:03:09.344Z,70.30
2019-03-26T01:05:39.342Z,70.30
2019-03-26T01:08:09.318Z,70.30
2019-03-26T01:10:39.160Z,70.30
2019-03-26T01:13:09.133Z,70.30
2019-03-26T01:15:39.076Z,70.50
2019-03-26T01:18:08.980Z,70.50
2019-03-26T01:20:38.859Z,70.70
2019-03-26T01:23:08.904Z,71.00
2019-03-26T01:25:39.749Z,71.10
2019-03-26T01:28:09.816Z,71.20
2019-03-26T01:30:39.724Z,71.50
2019-03-26T01:33:09.620Z,71.70
2019-03-26T01:35:39.516Z,71.70
2019-03-26T01:38:09.356Z,71.80
2019-03-26T01:40:39.180Z,71.80
2019-03-26T01:43:09.209Z,71.90
2019-03-26T01:45:39.045Z,72.40
2019-03-26T01:48:08.895Z,72.00
2019-03-26T01:50:38.778Z,72.10
2019-03-26T01:53:27.430Z,72.10
2019-03-26T01:55:57.363Z,72.50
2019-03-26T01:58:27.287Z,72.00
2019-03-26T02:00:57.175Z,72.10
2019-03-26T02:03:27.341Z,72.00
2019-03-26T02:05:57.298Z,72.00
2019-03-26T02:08:27.176Z,72.00
2019-03-26T02:10:57.001Z,71.90
2019-03-26T02:13:26.983Z,72.00
2019-03-26T02:15:56.831Z,72.10
2019-03-26T02:18:26.856Z,72.00
2019-03-26T02:20:56.753Z,71.90
2019-03-26T02:23:26.677Z,71.90
2019-03-26T02:25:56.584Z,71.90
2019-03-26T02:28:26.523Z,71.90
2019-03-26T02:30:56.417Z,71.90
2019-03-26T02:33:26.282Z,72.00
2019-03-26T02:35:56.207Z,72.00
2019-03-26T02:38:26.161Z,72.10
2019-03-26T02:40:56.145Z,72.20
2019-03-26T02:43:26.118Z,72.10
2019-03-26T02:45:55.986Z,72.10
2019-03-26T02:48:25.873Z,71.90
2019-03-26T02:50:55.813Z,72.00
2019-03-26T02:53:25.664Z,71.90
2019-03-26T02:55:55.549Z,71.90
2019-03-26T02:58:26.688Z,71.80
2019-03-26T03:00:56.639Z,71.70
2019-03-26T03:03:26.555Z,71.70
2019-03-26T03:05:56.476Z,71.80
2019-03-26T03:08:26.373Z,71.80
2019-03-26T03:10:56.242Z,71.90
2019-03-26T03:13:26.139Z,72.10
2019-03-26T03:15:56.055Z,71.90
2019-03-26T03:18:26.058Z,71.90
2019-03-26T03:20:56.077Z,72.10
2019-03-26T03:23:26.184Z,72.00
2019-03-26T03:25:56.262Z,72.00
2019-03-26T03:28:26.236Z,72.00
2019-03-26T03:30:56.120Z,72.00
2019-03-26T03:33:26.112Z,72.10
2019-03-26T03:35:56.168Z,71.90
2019-03-26T03:38:26.082Z,71.90
2019-03-26T03:40:56.034Z,71.90
2019-03-26T03:43:25.968Z,71.70
2019-03-26T03:45:56.627Z,71.50
2019-03-26T03:48:26.712Z,71.80
2019-03-26T03:50:58.682Z,71.70
2019-03-26T03:53:29.077Z,71.70
2019-03-26T03:56:01.132Z,71.70
2019-03-26T03:58:32.770Z,71.60
2019-03-26T04:01:08.588Z,71.50
2019-03-26T04:03:38.569Z,71.40
2019-03-26T04:06:10.069Z,71.40
2019-03-26T04:08:39.973Z,71.40
2019-03-26T04:11:09.847Z,71.50
2019-03-26T04:13:41.117Z,71.50
2019-03-26T04:16:11.067Z,71.40
2019-03-26T04:18:41.072Z,71.30
2019-03-26T04:21:11.102Z,71.30
2019-03-26T04:23:41.201Z,71.40
2019-03-26T04:26:11.193Z,71.40
2019-03-26T04:28:41.138Z,71.50
2019-03-26T04:31:11.195Z,71.60
2019-03-26T04:33:41.187Z,71.60
2019-03-26T04:36:24.595Z,71.70
2019-03-26T04:38:42.892Z,71.50
2019-03-26T04:41:12.777Z,71.30
2019-03-26T04:43:42.779Z,71.30
2019-03-26T04:46:12.698Z,72.30
2019-03-26T04:48:42.551Z,71.30
2019-03-26T04:51:12.506Z,71.30
2019-03-26T04:53:42.360Z,71.30
2019-03-26T04:56:12.278Z,71.40
2019-03-26T04:58:43.998Z,71.50
2019-03-26T05:01:13.766Z,71.50
2019-03-26T05:03:43.713Z,71.50
2019-03-26T05:06:13.608Z,71.50
2019-03-26T05:08:43.616Z,71.30
2019-03-26T05:11:13.575Z,71.10
2019-03-26T05:13:43.552Z,71.20
2019-03-26T05:16:13.536Z,71.30
2019-03-26T05:18:43.375Z,71.20
2019-03-26T05:21:13.226Z,71.30
2019-03-26T05:23:55.093Z,71.10
2019-03-26T05:26:25.118Z,71.10
2019-03-26T05:29:04.038Z,71.20
2019-03-26T05:31:34.991Z,71.00
2019-03-26T05:34:05.022Z,70.90
2019-03-26T05:36:35.325Z,70.80
2019-03-26T05:39:06.830Z,70.70
2019-03-26T05:41:38.063Z,70.60
2019-03-26T05:44:18.389Z,70.70
2019-03-26T05:46:49.475Z,70.60
2019-03-26T05:49:21.562Z,70.40
2019-03-26T05:51:52.584Z,70.40
2019-03-26T05:54:22.583Z,70.10
2019-03-26T05:56:52.636Z,70.00
2019-03-26T05:59:22.473Z,70.00
2019-03-26T06:01:52.473Z,69.90
2019-03-26T06:04:22.375Z,70.00
2019-03-26T06:07:04.323Z,69.80
2019-03-26T06:09:25.883Z,69.70
2019-03-26T06:11:55.723Z,69.40
2019-03-26T06:14:27.163Z,69.20
2019-03-26T06:16:57.034Z,69.10
2019-03-26T06:19:26.951Z,69.00
2019-03-26T06:21:56.999Z,69.00
2019-03-26T06:24:27.024Z,69.00
2019-03-26T06:26:56.942Z,69.10
2019-03-26T06:29:26.851Z,69.00
2019-03-26T06:32:02.878Z,68.90
2019-03-26T06:34:32.852Z,68.80
2019-03-26T06:37:02.763Z,68.80
2019-03-26T06:39:32.703Z,68.60
2019-03-26T06:42:02.791Z,69.10
2019-03-26T06:44:32.681Z,68.10
2019-03-26T06:47:02.669Z,68.10
2019-03-26T06:49:32.689Z,68.10
2019-03-26T06:52:02.522Z,68.10
2019-03-26T06:54:32.576Z,68.20
2019-03-26T06:57:02.578Z,68.10
2019-03-26T06:59:32.438Z,67.80
2019-03-26T07:02:21.128Z,67.80
2019-03-26T07:04:51.368Z,67.90
2019-03-26T07:07:30.850Z,67.60
2019-03-26T07:09:52.894Z,67.10
2019-03-26T07:12:24.932Z,67.20
2019-03-26T07:14:54.846Z,67.40
2019-03-26T07:17:24.825Z,67.30
2019-03-26T07:19:54.676Z,67.30
2019-03-26T07:22:24.552Z,66.90
2019-03-26T07:24:54.328Z,66.70
2019-03-26T07:27:33.518Z,66.70
2019-03-26T07:30:03.446Z,66.30
2019-03-26T07:32:33.345Z,66.10
2019-03-26T07:35:03.308Z,66.10
2019-03-26T07:37:44.662Z,66.00
2019-03-26T07:40:05.106Z,66.00
2019-03-26T07:42:35.158Z,66.10
2019-03-26T07:45:05.588Z,65.90
2019-03-26T07:47:35.606Z,65.60
2019-03-26T07:50:06.961Z,65.40
2019-03-26T07:52:36.878Z,65.50
2019-03-26T07:55:07.859Z,65.50
2019-03-26T07:57:38.241Z,65.50
2019-03-26T08:00:10.049Z,65.40
2019-03-26T08:02:40.066Z,65.40
2019-03-26T08:05:10.536Z,65.50
2019-03-26T08:07:40.566Z,65.60
2019-03-26T08:10:10.758Z,65.90
2019-03-26T08:12:42.013Z,66.70
2019-03-26T08:15:12.028Z,65.90
2019-03-26T08:17:45.264Z,66.00
2019-03-26T08:20:14.714Z,66.30
2019-03-26T08:22:44.644Z,66.10
2019-03-26T08:25:15.624Z,66.30
2019-03-26T08:27:45.699Z,66.20
2019-03-26T08:30:16.682Z,66.20
2019-03-26T08:32:46.757Z,66.10
2019-03-26T08:35:17.496Z,66.20
2019-03-26T08:37:47.490Z,66.00
2019-03-26T08:40:17.490Z,65.90
2019-03-26T08:42:47.475Z,65.90
2019-03-26T08:45:17.346Z,65.90
2019-03-26T08:47:47.258Z,65.90
2019-03-26T08:50:17.338Z,65.90
2019-03-26T08:52:47.364Z,65.80
2019-03-26T08:55:17.303Z,65.60
2019-03-26T08:57:47.286Z,65.60
2019-03-26T09:00:17.490Z,65.70
2019-03-26T09:02:47.384Z,65.80
2019-03-26T09:05:19.982Z,66.00
2019-03-26T09:07:49.855Z,66.00
2019-03-26T09:10:19.771Z,66.00
2019-03-26T09:12:49.768Z,65.90
2019-03-26T09:15:19.735Z,65.90
2019-03-26T09:17:49.623Z,65.90
2019-03-26T09:20:19.531Z,65.60
2019-03-26T09:22:49.563Z,65.30
2019-03-26T09:25:19.591Z,65.30
2019-03-26T09:27:52.345Z,65.40
2019-03-26T09:30:21.155Z,65.50
2019-03-26T09:32:51.155Z,65.10
2019-03-26T09:35:21.098Z,64.60
2019-03-26T09:37:51.093Z,63.90
2019-03-26T09:40:21.104Z,63.40
2019-03-26T09:42:50.929Z,63.20
2019-03-26T09:45:20.814Z,63.00
2019-03-26T09:47:50.884Z,62.90
2019-03-26T09:50:41.970Z,62.70
2019-03-26T09:53:11.852Z,62.30
2019-03-26T09:55:42.827Z,61.40
2019-03-26T09:58:18.850Z,61.10
2019-03-26T10:00:48.880Z,60.70
2019-03-26T10:03:19.156Z,60.30
2019-03-26T10:05:49.154Z,60.30
2019-03-26T10:08:19.172Z,60.40
2019-03-26T10:10:49.136Z,60.20
2019-03-26T10:13:21.282Z,60.30
2019-03-26T10:15:51.407Z,60.20
2019-03-26T10:18:21.367Z,60.10
2019-03-26T10:20:51.316Z,60.00
2019-03-26T10:23:21.165Z,60.20
2019-03-26T10:25:50.996Z,59.90
2019-03-26T10:28:21.948Z,59.00
2019-03-26T10:30:51.829Z,58.70
2019-03-26T10:33:21.923Z,58.70
2019-03-26T10:35:51.817Z,58.80
2019-03-26T10:38:21.741Z,58.00
2019-03-26T10:40:51.737Z,57.80
2019-03-26T10:43:21.811Z,57.60
2019-03-26T10:45:51.797Z,57.50
2019-03-26T10:48:21.765Z,57.40
2019-03-26T10:50:51.733Z,56.80
2019-03-26T10:53:21.787Z,56.60
2019-03-26T10:55:51.737Z,56.70
2019-03-26T10:58:21.731Z,56.80
2019-03-26T11:00:51.738Z,56.70
2019-03-26T11:03:21.753Z,56.60
2019-03-26T11:05:51.683Z,56.30
2019-03-26T11:08:21.678Z,55.10
2019-03-26T11:10:51.787Z,54.70
2019-03-26T11:13:21.721Z,54.00
2019-03-26T11:15:51.782Z,53.90
2019-03-26T11:18:21.715Z,53.60
2019-03-26T11:21:01.901Z,53.10
2019-03-26T11:23:23.287Z,52.70
2019-03-26T11:25:53.149Z,52.70
2019-03-26T11:28:23.055Z,52.70
2019-03-26T11:30:52.948Z,52.10
2019-03-26T11:33:22.844Z,52.10
2019-03-26T11:35:52.794Z,52.00
2019-03-26T11:38:22.662Z,51.70
2019-03-26T11:40:52.601Z,51.50
2019-03-26T11:43:22.439Z,51.40
2019-03-26T11:45:52.453Z,51.70
2019-03-26T11:48:22.328Z,51.70
2019-03-26T11:50:52.260Z,50.90
2019-03-26T11:53:22.342Z,50.60
2019-03-26T11:55:52.146Z,50.40
2019-03-26T11:58:30.470Z,50.50
2019-03-26T12:00:53.726Z,50.30
2019-03-26T12:03:23.564Z,50.30
2019-03-26T12:05:53.472Z,50.30
2019-03-26T12:08:23.475Z,49.90
2019-03-26T12:10:53.370Z,49.80
2019-03-26T12:13:23.390Z,49.50
2019-03-26T12:15:53.220Z,50.70
2019-03-26T12:18:23.205Z,49.60
2019-03-26T12:20:53.190Z,48.80
2019-03-26T12:23:23.656Z,49.10
2019-03-26T12:25:53.507Z,49.10
2019-03-26T12:28:23.279Z,48.50
2019-03-26T12:30:53.281Z,47.90
2019-03-26T12:33:23.197Z,48.10
2019-03-26T12:35:53.195Z,47.90
2019-03-26T12:38:23.223Z,47.90
2019-03-26T12:40:55.054Z,47.80
2019-03-26T12:43:24.922Z,47.60
2019-03-26T12:45:54.839Z,47.50
2019-03-26T12:48:24.745Z,47.80
2019-03-26T12:50:54.697Z,48.00
2019-03-26T12:53:24.631Z,48.10
2019-03-26T12:55:54.572Z,48.10
2019-03-26T12:58:31.660Z,48.30
2019-03-26T13:00:56.251Z,48.50
2019-03-26T13:03:26.191Z,48.60
2019-03-26T13:05:56.035Z,48.80
2019-03-26T13:08:35.023Z,49.00
2019-03-26T13:11:04.975Z,49.10
2019-03-26T13:13:34.885Z,49.00
2019-03-26T13:16:04.813Z,49.00
2019-03-26T13:18:34.687Z,48.80
2019-03-26T13:21:04.509Z,48.80
2019-03-26T13:23:34.450Z,49.00
2019-03-26T13:26:04.440Z,49.20
2019-03-26T13:28:34.405Z,49.40
2019-03-26T13:31:04.411Z,49.50
2019-03-26T13:33:34.256Z,49.60
2019-03-26T13:36:04.278Z,49.30
2019-03-26T13:38:34.215Z,49.10
2019-03-26T13:41:03.986Z,49.00
2019-03-26T13:43:34.008Z,49.10
2019-03-26T13:46:04.087Z,49.30
2019-03-26T13:48:34.219Z,49.40
2019-03-26T13:51:04.301Z,49.40
2019-03-26T13:53:34.312Z,49.40
2019-03-26T13:56:04.214Z,49.00
2019-03-26T13:58:34.350Z,49.10
2019-03-26T14:01:04.448Z,49.10
2019-03-26T14:03:34.472Z,49.10
2019-03-26T14:06:23.304Z,49.10
2019-03-26T14:08:53.285Z,49.30
2019-03-26T14:11:23.436Z,49.10
2019-03-26T14:13:53.572Z,49.00
2019-03-26T14:16:23.534Z,49.10
2019-03-26T14:18:54.476Z,49.70
2019-03-26T14:21:24.443Z,49.10
2019-03-26T14:23:54.846Z,49.10
2019-03-26T14:26:24.770Z,49.40
2019-03-26T14:28:54.916Z,49.50
2019-03-26T14:31:24.800Z,49.40
2019-03-26T14:33:54.676Z,49.30
2019-03-26T14:36:24.603Z,49.40
2019-03-26T14:38:54.561Z,49.20
2019-03-26T14:41:24.536Z,49.10
2019-03-26T14:43:54.651Z,49.20
2019-03-26T14:46:24.632Z,49.10
2019-03-26T14:48:54.673Z,49.00
2019-03-26T14:51:24.699Z,49.20
2019-03-26T14:53:54.749Z,49.30
2019-03-26T14:56:24.665Z,49.40
2019-03-26T14:58:54.711Z,49.60
2019-03-26T15:01:24.645Z,49.70
2019-03-26T15:03:54.905Z,49.70
2019-03-26T15:06:24.781Z,49.70
2019-03-26T15:08:56.499Z,49.70
2019-03-26T15:11:26.489Z,49.30
2019-03-26T15:13:56.905Z,49.10
2019-03-26T15:16:27.155Z,49.70
2019-03-26T15:18:57.419Z,49.30
2019-03-26T15:21:27.555Z,49.30
2019-03-26T15:24:00.025Z,49.20
2019-03-26T15:26:30.027Z,49.30
2019-03-26T15:28:59.907Z,49.10
2019-03-26T15:31:29.821Z,49.10
2019-03-26T15:33:59.744Z,49.30
2019-03-26T15:36:30.136Z,49.40
2019-03-26T15:39:00.159Z,49.40
2019-03-26T15:41:30.538Z,49.50
2019-03-26T15:44:00.674Z,49.50
2019-03-26T15:46:30.998Z,49.60
2019-03-26T15:49:01.654Z,49.60
2019-03-26T15:51:32.763Z,49.60
2019-03-26T15:54:04.356Z,49.60
2019-03-26T15:56:35.410Z,49.70
2019-03-26T15:59:05.570Z,49.80
2019-03-26T16:01:36.827Z,49.80
2019-03-26T16:04:07.294Z,49.80
2019-03-26T16:06:37.360Z,49.90
2019-03-26T16:09:11.159Z,49.90
2019-03-26T16:11:41.081Z,49.80
2019-03-26T16:14:10.983Z,49.90
2019-03-26T16:16:41.227Z,49.90
2019-03-26T16:19:11.126Z,50.60
2019-03-26T16:21:41.327Z,50.00
2019-03-26T16:24:11.228Z,50.10
2019-03-26T16:26:41.244Z,50.20
2019-03-26T16:29:11.403Z,50.30
2019-03-26T16:31:43.454Z,50.30
2019-03-26T16:34:15.709Z,50.00
2019-03-26T16:36:58.457Z,50.20
2019-03-26T16:39:17.352Z,50.30
2019-03-26T16:41:49.394Z,50.40
2019-03-26T16:44:19.255Z,50.30
2019-03-26T16:46:49.839Z,50.20
2019-03-26T16:49:19.716Z,50.30
2019-03-26T16:51:49.745Z,50.20
2019-03-26T16:54:19.634Z,50.40
2019-03-26T16:56:49.743Z,50.60
2019-03-26T16:59:19.693Z,51.00
2019-03-26T17:01:49.634Z,52.10
2019-03-26T17:04:20.613Z,52.40
2019-03-26T17:06:50.676Z,52.60
2019-03-26T17:09:20.684Z,52.90
2019-03-26T17:12:02.412Z,53.10
2019-03-26T17:14:22.323Z,53.30
2019-03-26T17:17:00.025Z,53.50
2019-03-26T17:19:32.487Z,53.80
2019-03-26T17:22:01.491Z,54.10
2019-03-26T17:24:31.439Z,54.50
2019-03-26T17:27:02.192Z,54.90
2019-03-26T17:29:38.492Z,55.40
2019-03-26T17:32:08.622Z,55.80
2019-03-26T17:34:38.819Z,56.50
2019-03-26T17:37:16.848Z,57.00
2019-03-26T17:39:46.728Z,57.30
2019-03-26T17:42:17.721Z,57.50
2019-03-26T17:44:49.988Z,57.80
2019-03-26T17:47:35.094Z,58.10
2019-03-26T17:50:05.350Z,58.20
2019-03-26T17:52:35.513Z,58.40
2019-03-26T17:55:06.182Z,58.80
2019-03-26T17:57:38.154Z,58.90
2019-03-26T18:00:10.054Z,59.00
2019-03-26T18:02:42.171Z,59.10
2019-03-26T18:05:25.250Z,59.20
2019-03-26T18:07:55.204Z,59.40
2019-03-26T18:10:25.080Z,59.40
2019-03-26T18:12:55.001Z,59.50
2019-03-26T18:15:24.892Z,60.10
2019-03-26T18:17:54.745Z,59.60
2019-03-26T18:20:32.414Z,59.60
2019-03-26T18:22:56.291Z,59.60
2019-03-26T18:25:26.336Z,59.70
2019-03-26T18:27:56.283Z,59.80
2019-03-26T18:30:30.124Z,59.90
2019-03-26T18:32:59.995Z,60.00
2019-03-26T18:35:31.057Z,60.20
2019-03-26T18:38:01.535Z,60.30
2019-03-26T18:40:31.581Z,61.10
2019-03-26T18:43:03.129Z,60.30
2019-03-26T18:45:33.237Z,61.20
2019-03-26T18:48:05.603Z,60.50
2019-03-26T18:50:35.578Z,60.40
2019-03-26T18:53:05.871Z,60.60
2019-03-26T18:55:35.965Z,60.60
2019-03-26T18:58:06.069Z,60.60
2019-03-26T19:00:39.459Z,60.70
2019-03-26T19:03:09.549Z,60.70
2019-03-26T19:05:39.722Z,60.70
2019-03-26T19:08:09.653Z,60.70
2019-03-26T19:10:39.644Z,60.70
2019-03-26T19:13:19.325Z,61.60
2019-03-26T19:15:41.070Z,61.00
2019-03-26T19:18:10.959Z,61.10
2019-03-26T19:20:44.222Z,61.20
2019-03-26T19:23:14.171Z,61.30
2019-03-26T19:25:44.368Z,61.40
2019-03-26T19:28:14.746Z,61.50
2019-03-26T19:30:44.646Z,61.70
2019-03-26T19:33:14.499Z,61.60
2019-03-26T19:35:44.840Z,61.70
2019-03-26T19:38:14.848Z,61.90
2019-03-26T19:40:53.650Z,62.00
2019-03-26T19:43:25.681Z,62.00
2019-03-26T19:45:55.622Z,62.30
2019-03-26T19:48:25.646Z,62.30
2019-03-26T19:50:55.746Z,62.50
2019-03-26T19:53:25.615Z,62.60
2019-03-26T19:55:55.575Z,62.60
2019-03-26T19:58:26.560Z,62.60
2019-03-26T20:00:56.502Z,62.70
2019-03-26T20:03:26.359Z,62.70
2019-03-26T20:05:56.381Z,62.80
2019-03-26T20:08:26.319Z,62.90
2019-03-26T20:10:56.190Z,62.90
2019-03-26T20:13:26.165Z,62.90
2019-03-26T20:16:00.262Z,62.90
2019-03-26T20:18:30.316Z,63.00
2019-03-26T20:21:00.238Z,63.00
2019-03-26T20:23:30.808Z,63.00
2019-03-26T20:26:00.707Z,63.00
2019-03-26T20:28:30.634Z,62.90
2019-03-26T20:31:00.853Z,63.00
2019-03-26T20:33:30.685Z,63.00
2019-03-26T20:36:00.570Z,63.00
2019-03-26T20:38:30.855Z,63.00
2019-03-26T20:41:00.806Z,62.90
2019-03-26T20:43:37.108Z,63.00
2019-03-26T20:46:04.467Z,63.00
2019-03-26T20:48:34.553Z,63.10
2019-03-26T20:51:04.405Z,63.90
2019-03-26T20:53:34.356Z,63.40
2019-03-26T20:56:04.471Z,63.50
2019-03-26T20:58:45.711Z,63.60
2019-03-26T21:01:15.575Z,63.60
2019-03-26T21:03:45.510Z,63.60
2019-03-26T21:06:15.547Z,63.60
2019-03-26T21:08:45.549Z,63.60
2019-03-26T21:11:15.647Z,63.60
2019-03-26T21:13:51.790Z,63.70
2019-03-26T21:16:21.729Z,63.80
2019-03-26T21:18:51.717Z,63.70
2019-03-26T21:21:21.633Z,63.70
2019-03-26T21:23:51.585Z,63.70
2019-03-26T21:26:21.575Z,63.70
2019-03-26T21:28:51.457Z,63.80
2019-03-26T21:31:22.638Z,63.80
2019-03-26T21:33:52.543Z,63.70
2019-03-26T21:36:22.491Z,63.80
2019-03-26T21:38:52.719Z,63.80
2019-03-26T21:41:22.652Z,63.70
2019-03-26T21:44:03.543Z,63.70
2019-03-26T21:46:24.298Z,63.60
2019-03-26T21:48:54.281Z,63.70
2019-03-26T21:51:24.168Z,63.70
2019-03-26T21:53:54.124Z,63.70
2019-03-26T21:56:24.034Z,63.70
2019-03-26T21:58:53.879Z,63.60
2019-03-26T22:01:23.710Z,63.60
2019-03-26T22:03:53.730Z,63.60
2019-03-26T22:06:23.745Z,63.50
2019-03-26T22:08:53.816Z,63.60
2019-03-26T22:11:24.169Z,63.60
2019-03-26T22:13:54.190Z,63.60
2019-03-26T22:16:24.298Z,64.30
2019-03-26T22:18:54.190Z,63.60
2019-03-26T22:21:24.158Z,63.60
2019-03-26T22:23:54.035Z,63.60
2019-03-26T22:26:24.224Z,63.70
2019-03-26T22:28:54.381Z,63.60
2019-03-26T22:31:24.494Z,63.60
2019-03-26T22:33:55.953Z,63.60
2019-03-26T22:36:25.843Z,63.60
2019-03-26T22:38:55.789Z,63.60
2019-03-26T22:41:25.740Z,64.40
2019-03-26T22:43:55.721Z,63.50
2019-03-26T22:46:25.648Z,63.50
2019-03-26T22:49:03.464Z,63.40
2019-03-26T22:51:33.399Z,63.30
2019-03-26T22:54:03.319Z,63.40
2019-03-26T22:56:33.275Z,63.30
2019-03-26T22:59:03.227Z,63.30
2019-03-26T23:01:36.309Z,63.40
2019-03-26T23:04:06.200Z,63.40
2019-03-26T23:06:36.429Z,63.40
2019-03-26T23:09:07.331Z,63.60
2019-03-26T23:11:37.399Z,63.50
2019-03-26T23:14:07.270Z,62.90
2019-03-26T23:16:37.281Z,63.60
2019-03-26T23:19:07.304Z,63.50
2019-03-26T23:21:37.316Z,63.50
2019-03-26T23:24:07.491Z,63.60
2019-03-26T23:26:38.510Z,63.60
2019-03-26T23:29:08.576Z,63.70
2019-03-26T23:31:38.406Z,63.80
2019-03-26T23:34:08.342Z,63.90
2019-03-26T23:36:38.278Z,63.90
2019-03-26T23:39:08.450Z,63.90
2019-03-26T23:41:39.825Z,63.60
2019-03-26T23:44:09.994Z,63.70
2019-03-26T23:46:39.846Z,63.60
2019-03-26T23:49:09.760Z,63.70
2019-03-26T23:51:39.692Z,63.70
2019-03-26T23:54:09.482Z,63.70
2019-03-26T23:56:39.262Z,63.60
2019-03-26T23:59:09.098Z,63.50
